Time;durP1;ratioP1;P1;durP2;ratioP2;P2;SDS_P1;SDS_P2;PMS_P1;PMS_P2;Temp;Humidity;BMP_temperature;BMP_pressure;BME280_temperature;BME280_humidity;BME280_pressure;Samples;Min_cycle;Max_cycle;Signal;HPM_P1;HPM_P2
2022/09/25 00:03:23;;;;;;;18.27;12.27;;;11.80;1.00;;;;;;10478533;28;20190;-78
2022/09/25 00:08:45;;;;;;;24.37;14.80;;;11.90;9.30;;;;;;10463042;28;20218;-79
2022/09/25 00:14:06;;;;;;;28.33;16.77;;;11.80;99.90;;;;;;10463144;28;20209;-78
2022/09/25 00:25:14;;;;;;;38.53;23.60;;;11.70;1.00;;;;;;10487523;28;20216;-78
2022/09/25 00:30:39;;;;;;;41.83;24.57;;;11.60;1.00;;;;;;10435449;28;20237;-79
2022/09/25 00:36:06;;;;;;;37.97;22.33;;;11.60;1.00;;;;;;10477532;28;20496;-78
2022/09/25 00:41:31;;;;;;;33.33;20.07;;;11.60;99.90;;;;;;10476319;28;20200;-79
2022/09/25 00:46:53;;;;;;;28.60;18.73;;;11.60;99.90;;;;;;10462700;28;20413;-78
2022/09/25 00:52:15;;;;;;;28.33;18.43;;;11.60;1.00;;;;;;10476897;28;20583;-78
2022/09/25 00:57:39;;;;;;;30.67;17.30;;;11.60;1.00;;;;;;10476933;28;20248;-78
2022/09/25 01:03:01;;;;;;;26.47;15.20;;;11.50;13.30;;;;;;10476300;28;20195;-81
2022/09/25 01:08:26;;;;;;;18.87;13.97;;;11.50;1.00;;;;;;10469628;28;20236;-78
2022/09/25 01:13:48;;;;;;;20.10;13.73;;;11.40;15.10;;;;;;10483299;28;20202;-78
2022/09/25 01:19:34;;;;;;;28.60;15.23;;;11.30;99.90;;;;;;10483799;28;20228;-78
2022/09/25 01:25:24;;;;;;;24.53;16.17;;;11.30;99.90;;;;;;10494037;28;20435;-78
2022/09/25 01:30:49;;;;;;;26.17;15.77;;;11.20;99.90;;;;;;10461388;28;20780;-78
2022/09/25 01:36:31;;;;;;;30.07;17.23;;;11.20;99.90;;;;;;10484378;28;20200;-81
2022/09/25 01:41:56;;;;;;;26.07;16.87;;;11.10;1.00;;;;;;10483074;28;20197;-79
2022/09/25 01:47:23;;;;;;;25.53;15.80;;;11.10;1.00;;;;;;10468606;28;20212;-79
2022/09/25 01:52:49;;;;;;;25.93;15.87;;;11.10;1.00;;;;;;10483313;28;20301;-78
2022/09/25 01:58:22;;;;;;;28.50;15.83;;;11.00;1.00;;;;;;10482658;28;20412;-82
2022/09/25 02:04:09;;;;;;;24.63;15.10;;;11.00;1.00;;;;;;10443143;28;20206;-81
2022/09/25 02:09:34;;;;;;;20.40;13.50;;;11.00;99.90;;;;;;10434522;28;20271;-80
2022/09/25 02:15:07;;;;;;;22.03;12.63;;;11.10;99.90;;;;;;10481235;28;20231;-80
2022/09/25 02:20:31;;;;;;;19.43;13.10;;;11.10;99.90;;;;;;10481924;28;20469;-78
2022/09/25 02:26:07;;;;;;;18.87;12.33;;;11.10;99.90;;;;;;10476473;28;20204;-78
2022/09/25 02:31:41;;;;;;;16.30;11.00;;;11.10;99.90;;;;;;10481481;28;20304;-77
2022/09/25 02:37:08;;;;;;;16.17;11.63;;;11.10;99.90;;;;;;10466337;28;20256;-78
2022/09/25 02:42:48;;;;;;;19.77;12.27;;;11.10;99.90;;;;;;10466052;28;20251;-78
2022/09/25 02:48:23;;;;;;;19.33;12.63;;;11.10;99.90;;;;;;10480306;28;20190;-78
2022/09/25 02:54:06;;;;;;;17.13;11.80;;;11.10;99.90;;;;;;10438855;28;20224;-78
2022/09/25 02:59:34;;;;;;;18.90;12.43;;;11.00;99.90;;;;;;10445602;28;20269;-80
2022/09/25 03:04:57;;;;;;;16.10;11.00;;;11.00;99.90;;;;;;10479387;28;20225;-81
2022/09/25 03:10:19;;;;;;;19.33;12.13;;;11.00;99.90;;;;;;10479036;28;20218;-80
2022/09/25 03:15:44;;;;;;;16.27;10.53;;;11.10;99.90;;;;;;10465183;28;20431;-78
2022/09/25 03:21:05;;;;;;;13.60;9.73;;;11.00;99.90;;;;;;10479988;28;20388;-78
2022/09/25 03:26:27;;;;;;;18.03;11.53;;;11.00;99.90;;;;;;10474541;28;20487;-77
2022/09/25 03:31:48;;;;;;;17.37;11.60;;;11.00;99.90;;;;;;10495752;28;20232;-78
2022/09/25 03:37:09;;;;;;;18.27;11.97;;;11.00;99.90;;;;;;10479703;28;20225;-78
2022/09/25 03:42:31;;;;;;;22.30;12.20;;;10.90;99.90;;;;;;10477827;28;20196;-78
2022/09/25 03:47:53;;;;;;;23.03;13.90;;;11.00;99.90;;;;;;10478181;28;20188;-77
2022/09/25 03:53:16;;;;;;;23.80;13.43;;;10.90;99.90;;;;;;10463377;28;20300;-79
2022/09/25 03:58:39;;;;;;;33.50;17.27;;;10.90;99.90;;;;;;10477997;28;20357;-78
2022/09/25 04:04:02;;;;;;;41.60;21.70;;;10.90;99.90;;;;;;10436452;28;20255;-78
2022/09/25 04:09:23;;;;;;;34.43;18.63;;;10.80;99.90;;;;;;10443125;28;20239;-78
2022/09/25 04:14:45;;;;;;;28.50;16.83;;;10.80;1.00;;;;;;10463282;28;20501;-81
2022/09/25 04:20:08;;;;;;;24.97;14.80;;;10.80;1.00;;;;;;10463110;28;20196;-80
2022/09/25 04:25:30;;;;;;;17.73;11.53;;;10.70;1.00;;;;;;10486796;28;20500;-80
2022/09/25 04:30:51;;;;;;;19.70;13.10;;;10.70;99.90;;;;;;10453719;28;20228;-79
2022/09/25 04:36:14;;;;;;;19.10;13.63;;;10.60;99.90;;;;;;10463021;28;20228;-78
2022/09/25 04:41:35;;;;;;;17.93;12.70;;;10.60;99.90;;;;;;10455852;28;20193;-79
2022/09/25 04:46:57;;;;;;;20.83;12.70;;;10.60;99.90;;;;;;10484973;28;20308;-78
2022/09/25 04:52:19;;;;;;;23.93;13.30;;;10.60;1.00;;;;;;10485766;28;20530;-78
2022/09/25 04:57:40;;;;;;;18.87;12.80;;;10.60;1.00;;;;;;10470842;28;20202;-78
2022/09/25 05:03:17;;;;;;;23.77;14.93;;;10.50;1.00;;;;;;10472420;28;20272;-78
2022/09/25 05:08:38;;;;;;;24.63;16.27;;;10.50;1.00;;;;;;10484505;28;20246;-78
2022/09/25 05:14:00;;;;;;;24.73;18.37;;;10.60;1.00;;;;;;10484491;28;20220;-77
2022/09/25 05:19:21;;;;;;;31.63;20.23;;;10.60;1.00;;;;;;10483696;28;20192;-78
2022/09/25 05:24:42;;;;;;;25.40;18.53;;;10.60;1.00;;;;;;10492124;28;20206;-78
2022/09/25 05:30:04;;;;;;;23.53;16.97;;;10.70;1.00;;;;;;10480543;28;20448;-77
2022/09/25 05:35:28;;;;;;;23.77;16.37;;;10.70;1.00;;;;;;10484397;28;20353;-78
2022/09/25 05:40:51;;;;;;;31.83;20.17;;;10.80;1.00;;;;;;10468673;28;20200;-77
2022/09/25 05:46:14;;;;;;;30.33;20.90;;;10.80;99.90;;;;;;10483630;28;20218;-78
2022/09/25 05:51:35;;;;;;;32.80;19.27;;;10.90;99.90;;;;;;10481299;28;20385;-77
2022/09/25 05:56:56;;;;;;;25.17;17.40;;;11.00;99.90;;;;;;10468158;28;20365;-78
2022/09/25 06:02:17;;;;;;;26.40;16.27;;;11.10;99.90;;;;;;10453896;28;20196;-79
2022/09/25 06:07:39;;;;;;;25.00;15.10;;;11.20;85.10;;;;;;10481991;28;20531;-78
2022/09/25 06:13:03;;;;;;;31.13;18.60;;;11.30;10.00;;;;;;10481246;28;20451;-78
2022/09/25 06:18:25;;;;;;;22.80;15.73;;;11.40;7.50;;;;;;10467544;28;20202;-78
2022/09/25 06:23:47;;;;;;;27.13;17.00;;;11.50;10.40;;;;;;10467727;28;20503;-78
2022/09/25 06:29:08;;;;;;;26.37;17.43;;;11.60;1.00;;;;;;10486722;28;20289;-78
2022/09/25 06:34:29;;;;;;;21.10;14.83;;;11.80;1.00;;;;;;10439940;28;20208;-79
2022/09/25 06:39:50;;;;;;;26.67;14.67;;;12.00;1.00;;;;;;10444720;28;20197;-79
2022/09/25 06:45:12;;;;;;;22.53;14.20;;;12.10;1.00;;;;;;10481258;28;20189;-79
2022/09/25 06:50:41;;;;;;;19.27;13.17;;;12.10;99.90;;;;;;10481083;28;20245;-78
2022/09/25 06:56:02;;;;;;;19.03;12.03;;;12.30;99.90;;;;;;10480156;28;20213;-80
2022/09/25 07:01:24;;;;;;;15.90;10.97;;;12.40;99.90;;;;;;10480466;28;20194;-79
2022/09/25 07:06:46;;;;;;;23.07;14.27;;;12.60;1.00;;;;;;10465542;28;20239;-79
2022/09/25 07:12:08;;;;;;;21.20;13.83;;;12.70;1.00;;;;;;10479180;28;20218;-79
2022/09/25 07:17:29;;;;;;;17.70;12.43;;;12.70;1.00;;;;;;10479452;28;20194;-77
2022/09/25 07:22:52;;;;;;;21.10;12.67;;;12.80;99.90;;;;;;10479105;28;20555;-79
2022/09/25 07:28:14;;;;;;;21.17;13.60;;;13.00;1.00;;;;;;10488424;28;20192;-77
2022/09/25 07:33:35;;;;;;;18.73;12.83;;;13.10;99.90;;;;;;10478375;28;20222;-79
2022/09/25 07:38:57;;;;;;;15.52;11.32;;;13.30;38.10;;;;;;10450437;28;20192;-79
2022/09/25 07:44:18;;;;;;;15.63;11.20;;;13.70;1.00;;;;;;10477565;28;20188;-79
2022/09/25 07:49:58;;;;;;;13.85;10.90;;;13.90;99.90;;;;;;10477659;28;20298;-80
2022/09/25 07:55:20;;;;;;;17.38;12.02;;;;;;;;;;10477900;28;20285;-79
2022/09/25 08:00:42;;;;;;;18.98;11.48;;;14.90;1.00;;;;;;10477507;28;20195;-80
2022/09/25 08:06:11;;;;;;;18.35;12.32;;;;;;;;;;10478803;28;20240;-77
2022/09/25 08:11:33;;;;;;;19.95;14.20;;;15.50;99.90;;;;;;10463986;28;20223;-79
2022/09/25 08:16:55;;;;;;;12.85;10.55;;;15.70;1.00;;;;;;10494306;28;20389;-80
2022/09/25 08:22:16;;;;;;;14.30;10.90;;;15.90;99.90;;;;;;10477040;28;20418;-80
2022/09/25 08:27:39;;;;;;;13.68;9.05;;;16.20;52.50;;;;;;10487593;28;20489;-79
2022/09/25 08:33:00;;;;;;;12.60;8.50;;;16.70;99.90;;;;;;10462324;28;20219;-80
2022/09/25 08:38:25;;;;;;;15.10;9.85;;;17.90;1.00;;;;;;10477783;28;20187;-78
2022/09/25 08:44:07;;;;;;;9.43;7.28;;;19.00;1.00;;;;;;10476635;28;20417;-77
2022/09/25 08:49:35;;;;;;;11.18;7.63;;;19.20;99.90;;;;;;10476633;28;20196;-78
2022/09/25 08:54:57;;;;;;;9.70;7.78;;;19.00;1.00;;;;;;10424598;28;20426;-78
2022/09/25 09:00:22;;;;;;;11.88;8.73;;;19.10;1.00;;;;;;10441479;28;20210;-78
2022/09/25 09:05:45;;;;;;;12.18;7.47;;;19.20;1.00;;;;;;10476378;28;20252;-80
2022/09/25 09:11:36;;;;;;;13.85;9.02;;;18.80;99.90;;;;;;10462942;28;20265;-80
2022/09/25 09:17:35;;;;;;;10.07;8.25;;;18.60;99.90;;;;;;10476111;28;20196;-78
2022/09/25 09:22:57;;;;;;;14.25;10.02;;;18.60;1.00;;;;;;10475665;28;20207;-78
2022/09/25 09:28:57;;;;;;;13.20;7.63;;;18.70;99.90;;;;;;10496023;28;20212;-77
2022/09/25 09:34:43;;;;;;;9.55;6.85;;;19.30;99.90;;;;;;10483117;28;20247;-79
2022/09/25 09:40:39;;;;;;;11.10;6.72;;;20.50;20.30;;;;;;10483384;28;20192;-79
2022/09/25 09:46:43;;;;;;;9.05;6.47;;;20.60;99.90;;;;;;10484481;28;20544;-79
2022/09/25 09:52:21;;;;;;;11.98;6.63;;;20.70;99.90;;;;;;10482419;28;20299;-79
2022/09/25 09:57:47;;;;;;;12.38;7.25;;;20.60;24.00;;;;;;10468343;28;20224;-79
2022/09/25 10:03:24;;;;;;;11.95;7.30;;;20.50;1.00;;;;;;10468712;28;20222;-79
2022/09/25 10:08:45;;;;;;;8.55;6.97;;;20.50;1.00;;;;;;10483201;28;20218;-79
2022/09/25 10:14:15;;;;;;;9.18;6.28;;;20.80;1.00;;;;;;10468073;28;20473;-79
2022/09/25 10:19:42;;;;;;;8.48;5.78;;;;;;;;;;10482501;28;20219;-79
2022/09/25 10:25:05;;;;;;;10.23;5.50;;;22.00;1.00;;;;;;10463149;28;20229;-79
2022/09/25 10:30:26;;;;;;;9.07;6.15;;;22.70;1.00;;;;;;10469127;28;20282;-80
2022/09/25 10:35:50;;;;;;;8.70;5.95;;;23.00;1.00;;;;;;10481288;28;20267;-81
2022/09/25 10:41:21;;;;;;;6.30;5.63;;;23.60;1.00;;;;;;10480795;28;20254;-80
2022/09/25 10:52:22;;;;;;;6.32;4.78;;;25.10;1.00;;;;;;10479743;28;20285;-80
2022/09/25 10:57:46;;;;;;;5.45;3.97;;;25.30;1.00;;;;;;10452066;28;20196;-79
2022/09/25 11:03:20;;;;;;;5.45;4.32;;;26.30;1.00;;;;;;10479689;28;20188;-80
2022/09/25 11:08:41;;;;;;;4.60;2.80;;;25.60;99.90;;;;;;10465604;28;20483;-80
2022/09/25 11:14:05;;;;;;;4.75;3.20;;;24.20;99.90;;;;;;10486941;28;20223;-78
2022/09/25 11:19:32;;;;;;;4.57;3.42;;;23.70;99.90;;;;;;10481927;28;20259;-79
2022/09/25 11:25:02;;;;;;;4.35;2.78;;;24.70;99.90;;;;;;10495311;28;20191;-79
2022/09/25 11:30:31;;;;;;;4.00;3.58;;;26.40;99.90;;;;;;10480883;28;20239;-80
2022/09/25 11:36:06;;;;;;;3.97;3.40;;;26.40;99.90;;;;;;10484564;28;20192;-79
2022/09/25 11:41:34;;;;;;;4.28;3.72;;;26.80;99.90;;;;;;10470839;28;20188;-77
2022/09/25 11:47:10;;;;;;;3.55;3.15;;;27.60;99.90;;;;;;10482508;28;20195;-80
2022/09/25 11:52:46;;;;;;;4.03;2.88;;;27.80;99.90;;;;;;10482288;28;20243;-80
2022/09/25 11:58:45;;;;;;;4.57;4.15;;;28.00;99.90;;;;;;10470703;28;20196;-81
2022/09/25 12:04:29;;;;;;;4.47;3.50;;;27.90;99.90;;;;;;10429931;28;20239;-78
2022/09/25 12:10:29;;;;;;;13.38;10.02;;;27.50;99.90;;;;;;10451034;28;20282;-80
2022/09/25 12:16:21;;;;;;;4.20;2.80;;;27.30;99.90;;;;;;10480536;28;20219;-83
2022/09/25 12:21:48;;;;;;;7.22;5.40;;;27.60;99.90;;;;;;10481551;28;20205;-82
2022/09/25 12:27:43;;;;;;;10.30;8.02;;;27.80;99.90;;;;;;10492062;28;20196;-82
2022/09/25 12:33:21;;;;;;;8.85;4.97;;;27.30;99.90;;;;;;10482907;28;20227;-83
2022/09/25 12:39:04;;;;;;;4.75;3.65;;;25.40;99.90;;;;;;10485227;28;20218;-80
2022/09/25 12:44:38;;;;;;;7.32;4.70;;;25.20;99.90;;;;;;10482991;28;20187;-79
2022/09/25 12:50:08;;;;;;;12.02;7.22;;;23.30;99.90;;;;;;10484247;28;20215;-80
2022/09/25 12:55:42;;;;;;;37.63;21.20;;;22.40;99.90;;;;;;10439880;28;20219;-79
2022/09/25 13:01:23;;;;;;;7.90;4.38;;;21.60;99.90;;;;;;10475945;28;20385;-79
2022/09/25 13:07:16;;;;;;;5.80;3.30;;;21.10;99.90;;;;;;10484705;28;20228;-79
2022/09/25 13:12:37;;;;;;;12.93;11.13;;;20.80;99.90;;;;;;10484856;28;20246;-79
2022/09/25 13:17:58;;;;;;;8.70;4.38;;;20.30;99.90;;;;;;10470202;28;20196;-79
2022/09/25 13:23:27;;;;;;;15.80;7.97;;;20.00;99.90;;;;;;10483274;28;20207;-79
2022/09/25 13:28:57;;;;;;;8.88;4.55;;;20.00;99.90;;;;;;10492919;28;20226;-79
2022/09/25 13:34:21;;;;;;;7.10;4.88;;;19.70;99.90;;;;;;10441888;28;20299;-79
2022/09/25 13:45:31;;;;;;;67.10;34.85;;;18.90;99.90;;;;;;10483977;28;20455;-79
2022/09/25 13:51:21;;;;;;;46.15;26.50;;;18.50;99.90;;;;;;10482441;28;20235;-79
2022/09/25 13:56:42;;;;;;;34.83;24.60;;;18.30;99.90;;;;;;10482626;28;20183;-79
2022/09/25 14:02:32;;;;;;;16.85;11.73;;;18.20;99.90;;;;;;10468721;28;20202;-79
2022/09/25 14:08:02;;;;;;;10.02;7.57;;;18.10;1.00;;;;;;10455855;28;20415;-79
2022/09/25 14:13:27;;;;;;;12.38;8.90;;;18.00;1.00;;;;;;10481287;28;20219;-81
2022/09/25 14:18:48;;;;;;;12.65;8.85;;;17.90;1.00;;;;;;10482588;28;20196;-79
2022/09/25 14:24:20;;;;;;;10.38;7.18;;;17.60;99.90;;;;;;10473582;28;20205;-79
2022/09/25 14:29:42;;;;;;;18.15;7.63;;;17.60;99.90;;;;;;10447069;28;20282;-78
2022/09/25 14:35:46;;;;;;;12.55;8.95;;;17.60;99.90;;;;;;10480759;28;20218;-79
2022/09/25 14:41:25;;;;;;;15.77;10.13;;;17.60;99.90;;;;;;10466442;28;20190;-79
2022/09/25 14:46:51;;;;;;;17.83;10.73;;;17.60;99.90;;;;;;10482174;28;20518;-79
2022/09/25 14:52:27;;;;;;;16.02;11.32;;;17.60;99.90;;;;;;10479723;28;20290;-79
2022/09/25 14:57:49;;;;;;;15.90;11.13;;;17.80;1.00;;;;;;10466334;28;20208;-80
2022/09/25 15:03:14;;;;;;;15.85;11.57;;;18.00;99.90;;;;;;10466242;28;20275;-79
2022/09/25 15:08:39;;;;;;;15.95;11.48;;;18.00;1.00;;;;;;10465659;28;20255;-80
2022/09/25 15:14:15;;;;;;;22.25;12.60;;;17.90;99.90;;;;;;10479884;28;20223;-79
2022/09/25 15:19:42;;;;;;;15.57;8.57;;;17.90;99.90;;;;;;10478816;28;20238;-80
2022/09/25 15:25:06;;;;;;;20.05;10.88;;;17.90;99.90;;;;;;10488646;28;20199;-80
2022/09/25 15:30:28;;;;;;;15.60;8.70;;;17.70;99.90;;;;;;10477613;28;20199;-79
2022/09/25 15:35:54;;;;;;;12.77;7.63;;;17.40;99.90;;;;;;10478855;28;20184;-79
2022/09/25 15:41:15;;;;;;;10.63;6.90;;;17.20;1.00;;;;;;10478512;28;20188;-81
2022/09/25 15:46:38;;;;;;;14.38;8.77;;;;;;;;;;10478728;28;20195;-78
2022/09/25 15:52:02;;;;;;;14.25;10.00;;;;;;;;;;10477421;28;20227;-78
2022/09/25 15:57:26;;;;;;;18.40;12.52;;;;;;;;;;10478025;28;20192;-79
2022/09/25 16:09:07;;;;;;;24.13;15.80;;;;;;;;;;10477779;28;20415;-79
2022/09/25 16:14:29;;;;;;;25.23;19.30;;;;;;;;;;10422536;28;20457;-78
2022/09/25 16:20:06;;;;;;;22.75;15.98;;;16.00;1.00;;;;;;10441589;28;20190;-78
2022/09/25 16:25:33;;;;;;;22.88;17.35;;;;;;;;;;10487544;28;20194;-78
2022/09/25 16:31:01;;;;;;;27.00;18.13;;;15.40;99.90;;;;;;10438757;28;20499;-78
2022/09/25 16:36:26;;;;;;;41.30;25.38;;;15.10;99.90;;;;;;10468453;28;20448;-78
2022/09/25 16:41:49;;;;;;;40.85;25.98;;;14.90;1.00;;;;;;10486365;28;20492;-79
2022/09/25 16:47:19;;;;;;;50.03;33.03;;;14.70;1.00;;;;;;10486686;28;20492;-78
2022/09/25 16:52:42;;;;;;;50.95;32.28;;;14.40;1.00;;;;;;10485394;28;20231;-79
2022/09/25 16:58:08;;;;;;;44.03;28.85;;;16.20;1.00;;;;;;10485416;28;20192;-78
2022/09/25 17:03:48;;;;;;;45.50;28.20;;;14.40;1.00;;;;;;10470568;28;20197;-80
2022/09/25 17:09:11;;;;;;;46.00;28.25;;;14.30;99.90;;;;;;10485002;28;20409;-79
2022/09/25 17:14:34;;;;;;;61.10;38.42;;;14.10;1.00;;;;;;10455292;28;20226;-80
2022/09/25 17:19:58;;;;;;;74.90;45.60;;;;;;;;;;10444126;28;20197;-79
2022/09/25 17:25:25;;;;;;;67.25;41.58;;;;;;;;;;10500772;28;20275;-78
2022/09/25 17:30:46;;;;;;;65.65;40.42;;;13.50;1.00;;;;;;10483115;28;20300;-78
2022/09/25 17:36:10;;;;;;;72.03;44.17;;;13.50;99.90;;;;;;10487822;28;20438;-78
2022/09/25 17:41:34;;;;;;;88.65;50.20;;;13.40;99.90;;;;;;10487121;28;20196;-78
2022/09/25 17:46:55;;;;;;;96.13;53.30;;;13.30;99.90;;;;;;10457530;28;20389;-77
2022/09/25 17:52:19;;;;;;;102.05;58.83;;;13.10;99.90;;;;;;10487695;28;20233;-76
2022/09/25 17:57:41;;;;;;;102.40;61.05;;;13.10;1.00;;;;;;10496820;28;20259;-78
2022/09/25 18:03:02;;;;;;;107.87;62.30;;;13.00;99.90;;;;;;10502099;28;20188;-77
2022/09/25 18:08:25;;;;;;;113.95;66.07;;;12.90;1.00;;;;;;10474367;28;20569;-77
2022/09/25 18:13:50;;;;;;;103.03;59.80;;;12.80;1.00;;;;;;10472137;28;20230;-79
2022/09/25 18:24:56;;;;;;;97.50;61.05;;;12.60;1.00;;;;;;10496279;28;20260;-77
2022/09/25 18:30:21;;;;;;;106.70;63.47;;;12.60;1.00;;;;;;10487129;28;20273;-79
2022/09/25 18:35:43;;;;;;;113.57;66.27;;;12.40;1.00;;;;;;10485398;28;20222;-77
2022/09/25 18:41:04;;;;;;;117.73;72.60;;;12.10;1.00;;;;;;10473519;28;20370;-78
2022/09/25 18:46:26;;;;;;;125.10;76.83;;;12.30;1.00;;;;;;10443621;28;20200;-79
2022/09/25 18:51:47;;;;;;;159.40;89.37;;;12.20;1.00;;;;;;10447412;28;20218;-78
2022/09/25 18:57:10;;;;;;;150.50;81.53;;;12.10;12.10;;;;;;10449403;28;20228;-79
2022/09/25 19:02:33;;;;;;;169.90;84.07;;;12.10;57.90;;;;;;10482991;28;20194;-79
2022/09/25 19:07:57;;;;;;;138.17;72.13;;;;;;;;;;10483861;28;20249;-79
2022/09/25 19:13:21;;;;;;;145.83;73.73;;;;;;;;;;10465701;28;20229;-78
2022/09/25 19:18:44;;;;;;;145.00;78.03;;;;;;;;;;10479390;28;20195;-78
2022/09/25 19:24:05;;;;;;;179.80;93.50;;;;;;;;;;10487513;28;20209;-79
2022/09/25 19:29:28;;;;;;;179.27;96.40;;;;;;;;;;10446883;28;20195;-79
2022/09/25 19:34:50;;;;;;;176.47;89.37;;;;;;;;;;10480751;28;20512;-82
2022/09/25 19:45:53;;;;;;;117.33;63.90;;;;;;;;;;10481318;28;20193;-81
2022/09/25 19:51:18;;;;;;;109.50;60.93;;;;;;;;;;10480275;28;20265;-78
2022/09/25 19:56:41;;;;;;;107.10;59.57;;;;;;;;;;10480255;28;20203;-78
2022/09/25 20:07:23;;;;;;;97.20;53.73;;;;;;;;;;10478470;28;20296;-81
2022/09/25 20:12:45;;;;;;;98.27;57.23;;;;;;;;;;10466550;28;20562;-78
2022/09/25 20:18:07;;;;;;;90.63;54.30;;;;;;;;;;10466134;28;20192;-78
2022/09/25 20:23:29;;;;;;;91.47;50.53;;;;;;;;;;10480273;28;20395;-79
2022/09/25 20:28:52;;;;;;;91.60;50.33;;;;;;;;;;10472559;28;20201;-81
2022/09/25 20:34:15;;;;;;;98.70;53.40;;;;;;;;;;10436340;28;20218;-78
2022/09/25 20:39:36;;;;;;;96.17;51.97;;;;;;;;;;10441100;28;20226;-79
2022/09/25 20:44:58;;;;;;;87.50;50.03;;;;;;;;;;10476564;28;20201;-78
2022/09/25 20:50:20;;;;;;;70.33;41.20;;;;;;;;;;10476863;28;20187;-79
2022/09/25 20:55:43;;;;;;;54.40;37.10;;;;;;;;;;10476473;28;20308;-78
2022/09/25 21:01:11;;;;;;;60.17;38.10;;;10.70;99.90;;;;;;10477339;28;20272;-79
2022/09/25 21:06:34;;;;;;;63.07;40.80;;;10.40;99.90;;;;;;10462308;28;20229;-79
2022/09/25 21:11:56;;;;;;;71.40;42.17;;;10.40;99.90;;;;;;10462032;28;20233;-78
2022/09/25 21:17:18;;;;;;;65.03;39.83;;;;;;;;;;10476174;28;20203;-78
2022/09/25 21:22:42;;;;;;;65.73;41.33;;;;;;;;;;10460195;28;20202;-78
2022/09/25 21:28:06;;;;;;;68.83;41.27;;;;;;;;;;10481565;28;20203;-78
2022/09/25 21:33:28;;;;;;;72.90;43.27;;;;;;;;;;10483439;28;20225;-79
2022/09/25 21:38:56;;;;;;;68.00;43.23;;;;;;;;;;10484403;28;20188;-79
2022/09/25 21:44:19;;;;;;;72.00;43.77;;;;;;;;;;10483051;28;20199;-78
2022/09/25 21:49:40;;;;;;;79.13;44.20;;;;;;;;;;10483958;28;20190;-79
2022/09/25 21:55:02;;;;;;;78.40;44.13;;;;;;;;;;10468285;28;20235;-78
2022/09/25 22:00:23;;;;;;;79.73;45.07;;;;;;;;;;10483179;28;20230;-78
2022/09/25 22:05:46;;;;;;;65.37;41.17;;;;;;;;;;10482326;28;20417;-79
2022/09/25 22:11:08;;;;;;;72.40;40.93;;;;;;;;;;10481839;28;20211;-79
2022/09/25 22:16:31;;;;;;;60.33;36.87;;;;;;;;;;10482203;28;20619;-78
2022/09/25 22:21:53;;;;;;;47.67;29.57;;;;;;;;;;10482318;28;20215;-79
2022/09/25 22:27:15;;;;;;;44.37;28.43;;;;;;;;;;10476743;28;20228;-80
2022/09/25 22:32:37;;;;;;;40.70;27.37;;;;;;;;;;10480465;28;20234;-78
2022/09/25 22:37:59;;;;;;;39.07;24.83;;;;;;;;;;10467095;28;20198;-78
2022/09/25 22:43:20;;;;;;;35.67;24.37;;;;;;;;;;10488469;28;20206;-78
2022/09/25 22:48:42;;;;;;;35.33;23.73;;;;;;;;;;10488692;28;20189;-78
2022/09/25 22:54:04;;;;;;;37.33;24.47;;;;;;;;;;10466258;28;20313;-78
2022/09/25 22:59:26;;;;;;;37.60;24.33;;;;;;;;;;10480667;28;20189;-78
2022/09/25 23:04:50;;;;;;;38.27;24.93;;;;;;;;;;10480058;28;20250;-79
2022/09/25 23:10:12;;;;;;;46.80;27.67;;;;;;;;;;10479513;28;20272;-79
2022/09/25 23:15:37;;;;;;;43.10;27.07;;;;;;;;;;10479223;28;20224;-78
2022/09/25 23:20:59;;;;;;;39.90;25.03;;;;;;;;;;10465326;28;20201;-79
2022/09/25 23:26:21;;;;;;;35.87;24.13;;;;;;;;;;10488862;28;20200;-78
2022/09/25 23:31:42;;;;;;;38.23;22.40;;;;;;;;;;10479803;28;20220;-79
2022/09/25 23:37:04;;;;;;;33.43;22.93;;;;;;;;;;10478594;28;20214;-78
2022/09/25 23:42:25;;;;;;;29.50;21.50;;;;;;;;;;10478673;28;20216;-78
2022/09/25 23:47:47;;;;;;;34.03;21.20;;;;;;;;;;10462710;28;20255;-78
2022/09/25 23:53:09;;;;;;;33.43;22.37;;;;;;;;;;10479513;28;20222;-78
2022/09/25 23:58:32;;;;;;;30.63;20.87;;;;;;;;;;10464045;28;20535;-78
